Tb_john — LJUO — position and weather

sailwx.info

Track history (hours):
 
Tides and Currents Weather Stations Pressure Air Temp Water Temp Dewpoint Dewpoint Depression Visibility Wind Speed Wind Dir Waves Ship Positions

Tb_john

Last reported at 2015-Mar-04 05:33 UTC. Time now 2015-Mar-04 07:06 UTC.
Position N 59°20' E 010°31'.

Length 33 m; draft 5 m.

Type: Tug. MMSI: 259599000.

Date/timePositionNaut miles runAvg speedWind from/ knotsBaromVisibWave heightAir tempDewpointWater temp
2015-Mar-04 05:33N 59°20' E 010°31'0 0.0
2015-Mar-04 04:33N 59°20' E 010°31'0 0.0
2015-Mar-04 03:33N 59°20' E 010°31'0 0.0
2015-Mar-04 02:34N 59°20' E 010°31'0 0.0
2015-Mar-04 01:34N 59°20' E 010°31'0 0.0
2015-Mar-04 00:33N 59°20' E 010°31'0 0.0
2015-Mar-03 23:33N 59°20' E 010°31'0 0.0
2015-Mar-03 22:34N 59°20' E 010°31'0 0.0
2015-Mar-03 21:33N 59°20' E 010°31'0 0.0
2015-Mar-03 20:34N 59°20' E 010°31'0 0.0
2015-Mar-03 19:34N 59°20' E 010°31'0 0.0
2015-Mar-03 18:34N 59°20' E 010°31'1 0.9
2015-Mar-03 17:34N 59°20' E 010°31'1 0.9
2015-Mar-03 16:33N 59°20' E 010°31'0 0.0
2015-Mar-03 15:33N 59°20' E 010°31'0 0.0
2015-Mar-03 14:33N 59°20' E 010°31'0 0.0
2015-Mar-03 13:33N 59°20' E 010°31'0 0.0
2015-Mar-03 12:34N 59°20' E 010°31'0 0.0
2015-Mar-03 11:34N 59°20' E 010°31'0 0.0
2015-Mar-03 10:34N 59°20' E 010°31'0 0.0
2015-Mar-03 09:33N 59°20' E 010°31'0 0.0
2015-Mar-03 08:33N 59°20' E 010°31'0 0.0
2015-Mar-03 07:34N 59°20' E 010°31'0 0.0
2015-Mar-03 06:33N 59°20' E 010°31'0 0.0
2015-Mar-03 05:33N 59°20' E 010°31'0 0.0
2015-Mar-03 04:34N 59°20' E 010°31'0 0.0
2015-Mar-03 03:33N 59°20' E 010°31'0 0.0
2015-Mar-03 02:33N 59°20' E 010°31'0 0.0
2015-Mar-03 01:34N 59°20' E 010°31'0 0.0
2015-Mar-03 00:33N 59°20' E 010°31'1 0.8
2015-Mar-02 23:33N 59°20' E 010°31'1 0.8
2015-Mar-02 22:33N 59°20' E 010°31'0 0.0
2015-Mar-02 21:33N 59°20' E 010°31'0 0.0
2015-Mar-02 20:33N 59°20' E 010°31'0 0.0
2015-Mar-02 19:33N 59°20' E 010°31'0 0.4
2015-Mar-02 18:33N 59°20' E 010°31'0 0.4
2015-Mar-02 17:33N 59°20' E 010°31'0 0.0
2015-Mar-02 16:33N 59°20' E 010°31'0 0.0
2015-Mar-02 15:33N 59°20' E 010°31'0 0.0
2015-Mar-02 14:34N 59°20' E 010°31'0 0.0
2015-Mar-02 13:33N 59°20' E 010°31'0 0.0
2015-Mar-02 12:33N 59°20' E 010°31'0 0.0
2015-Mar-02 11:34N 59°20' E 010°31'0 0.0
2015-Mar-02 10:33N 59°20' E 010°31'0 0.0
2015-Mar-02 09:34N 59°20' E 010°31'0 0.0
2015-Mar-02 08:33N 59°20' E 010°31'0 0.0
2015-Mar-02 07:34N 59°20' E 010°31'0 0.0
2015-Mar-02 06:33N 59°20' E 010°31'1 1.0
2015-Mar-02 05:33N 59°20' E 010°32'2 2.0
2015-Mar-02 04:33N 59°19' E 010°34'8 7.9
2015-Mar-02 03:34N 59°11' E 010°39'5 4.7
2015-Mar-02 02:33N 59°15' E 010°35'5 4.7
2015-Mar-02 01:34N 59°20' E 010°31'8 7.7
2015-Mar-02 00:33N 59°13' E 010°39'1 1.4
2015-Mar-01 23:33N 59°14' E 010°36'7 6.8
2015-Mar-01 22:33N 59°20' E 010°31'7 6.7
2015-Mar-01 21:34N 59°26' E 010°30'1 1.1
2015-Mar-01 20:33N 59°26' E 010°29'0 0.0
2015-Mar-01 19:33N 59°26' E 010°29'0 0.0
2015-Mar-01 18:33N 59°26' E 010°29'0 0.0
2015-Mar-01 17:33N 59°26' E 010°29'0 0.0
2015-Mar-01 16:33N 59°26' E 010°29'0 0.0
2015-Mar-01 15:33N 59°26' E 010°29'0 0.0
2015-Mar-01 14:33N 59°26' E 010°29'0 0.0
2015-Mar-01 13:33N 59°26' E 010°29'0 0.0
2015-Mar-01 12:33N 59°26' E 010°29'0 0.0
2015-Mar-01 11:34N 59°26' E 010°29'0 0.0
2015-Mar-01 10:33N 59°26' E 010°29'1 0.7
2015-Mar-01 09:34N 59°26' E 010°30'5 5.4
2015-Mar-01 08:34N 59°20' E 010°31'1 0.8
2015-Mar-01 07:33N 59°20' E 010°31'0 0.0
2015-Mar-01 06:34N 59°20' E 010°31'0 0.0
2015-Mar-01 05:34N 59°20' E 010°31'0 0.0
2015-Mar-01 04:33N 59°20' E 010°31'0 0.0
2015-Mar-01 03:34N 59°20' E 010°31'0 0.0
2015-Mar-01 02:33N 59°20' E 010°31'0 0.0
2015-Mar-01 01:33N 59°20' E 010°31'0 0.0
2015-Mar-01 00:33N 59°20' E 010°31'0 0.0
2015-Feb-28 23:33N 59°20' E 010°31'0 0.0
2015-Feb-28 22:33N 59°20' E 010°31'0 0.0
2015-Feb-28 21:33N 59°20' E 010°31'0 0.0
2015-Feb-28 20:33N 59°20' E 010°31'0 0.0
2015-Feb-28 19:33N 59°20' E 010°31'0 0.0
2015-Feb-28 18:33N 59°20' E 010°31'0 0.0
2015-Feb-28 17:33N 59°20' E 010°31'0 0.0
2015-Feb-28 16:33N 59°20' E 010°31'0 0.0
2015-Feb-28 15:33N 59°20' E 010°31'0 0.0
2015-Feb-28 14:34N 59°20' E 010°31'0 0.0
2015-Feb-28 13:33N 59°20' E 010°31'0 0.0
2015-Feb-28 12:33N 59°20' E 010°31'0 0.0
2015-Feb-28 11:33N 59°20' E 010°31'0 0.0
2015-Feb-28 10:33N 59°20' E 010°31'0 0.0
2015-Feb-28 09:33N 59°20' E 010°31'0 0.0
2015-Feb-28 08:34N 59°20' E 010°31'0 0.0
2015-Feb-28 07:33N 59°20' E 010°31'0 0.0
2015-Feb-28 06:34N 59°20' E 010°31'0 0.0
2015-Feb-28 05:33N 59°20' E 010°31'0 0.0
2015-Feb-28 04:33N 59°20' E 010°31'0 0.0
2015-Feb-28 03:34N 59°20' E 010°31'0 0.0
2015-Feb-28 02:33N 59°20' E 010°31'0 0.0
2015-Feb-28 01:33N 59°20' E 010°31'0 0.0
2015-Feb-28 00:33N 59°20' E 010°31'0 0.0
2015-Feb-27 23:33N 59°20' E 010°31'0 0.0
2015-Feb-27 22:33N 59°20' E 010°31'0 0.0
2015-Feb-27 21:34N 59°20' E 010°31'0 0.0
2015-Feb-27 20:33N 59°20' E 010°31'0 0.0
2015-Feb-27 19:33N 59°20' E 010°31'0 0.0
2015-Feb-27 18:34N 59°20' E 010°31'0 0.0
2015-Feb-27 17:33N 59°20' E 010°31'0 0.0
2015-Feb-27 16:33N 59°20' E 010°31'0 0.0
2015-Feb-27 15:33N 59°20' E 010°31'0 0.0
2015-Feb-27 14:33N 59°20' E 010°31'0 0.0
2015-Feb-27 13:33N 59°20' E 010°31'0 0.0
2015-Feb-27 12:33N 59°20' E 010°31'0 0.0
2015-Feb-27 11:33N 59°20' E 010°31'0 0.0
2015-Feb-27 10:33N 59°20' E 010°31'6 6.3
2015-Feb-27 09:34N 59°14' E 010°36'3 2.9
2015-Feb-27 08:33N 59°17' E 010°35'4 3.6
2015-Feb-27 07:33N 59°20' E 010°31'0 0.2
2015-Feb-27 06:33N 59°20' E 010°31'0 0.0
2015-Feb-27 05:33N 59°20' E 010°31'0 0.0
2015-Feb-27 04:33N 59°20' E 010°31'0 0.0
2015-Feb-27 03:33N 59°20' E 010°31'1 0.7
2015-Feb-27 02:33N 59°20' E 010°30'1 0.7
2015-Feb-27 01:33N 59°20' E 010°31'0 0.0
2015-Feb-27 00:33N 59°20' E 010°31'0 0.0
2015-Feb-26 23:33N 59°20' E 010°31'0 0.0
2015-Feb-26 22:33N 59°20' E 010°31'0 0.0
2015-Feb-26 21:33N 59°20' E 010°31'0 0.0
2015-Feb-26 20:33N 59°20' E 010°31'0 0.0
2015-Feb-26 19:33N 59°20' E 010°31'0 0.0
2015-Feb-26 18:34N 59°20' E 010°31'0 0.0
2015-Feb-26 17:33N 59°20' E 010°31'0 0.0
2015-Feb-26 16:33N 59°20' E 010°31'0 0.0
2015-Feb-26 15:33N 59°20' E 010°31'0 0.0
2015-Feb-26 14:33N 59°20' E 010°31'0 0.0
2015-Feb-26 13:33N 59°20' E 010°31'0 0.0
2015-Feb-26 12:33N 59°20' E 010°31'0 0.0
2015-Feb-26 11:33N 59°20' E 010°31'0 0.0
2015-Feb-26 10:33N 59°20' E 010°31'0 0.0
2015-Feb-26 09:34N 59°20' E 010°31'0 0.0
2015-Feb-26 08:33N 59°20' E 010°31'0 0.0
2015-Feb-26 07:33N 59°20' E 010°31'0 0.0
2015-Feb-26 06:33N 59°20' E 010°31'0 0.0
2015-Feb-26 05:33N 59°20' E 010°31'0 0.0
2015-Feb-26 04:33N 59°20' E 010°31'0 0.0
2015-Feb-26 03:33N 59°20' E 010°31'0 0.0
2015-Feb-26 02:34N 59°20' E 010°31'0 0.0
2015-Feb-26 01:33N 59°20' E 010°31'0 0.0
2015-Feb-26 00:34N 59°20' E 010°31'0 0.0
2015-Feb-25 23:33N 59°20' E 010°31'0 0.0
2015-Feb-25 22:33N 59°20' E 010°31'0 0.0
2015-Feb-25 21:34N 59°20' E 010°31'0 0.0
2015-Feb-25 20:33N 59°20' E 010°31'0 0.0
2015-Feb-25 19:33N 59°20' E 010°31'0 0.0
2015-Feb-25 18:33N 59°20' E 010°31'0 0.1
2015-Feb-25 17:33N 59°20' E 010°31'0 0.1
2015-Feb-25 16:34N 59°20' E 010°31'0 0.0
2015-Feb-25 15:33N 59°20' E 010°31'0 0.0
2015-Feb-25 14:34N 59°20' E 010°31'2 2.5
2015-Feb-25 13:33N 59°18' E 010°34'6 5.5
2015-Feb-25 12:33N 59°12' E 010°37'8 8.0
2015-Feb-25 11:33N 59°20' E 010°31'0 0.2
2015-Feb-25 10:33N 59°20' E 010°31'0 0.0
2015-Feb-25 09:33N 59°20' E 010°31'0 0.0
2015-Feb-25 08:33N 59°20' E 010°31'0 0.0
2015-Feb-25 07:33N 59°20' E 010°31'0 0.0
2015-Feb-25 06:33N 59°20' E 010°31'0 0.0
2015-Feb-25 05:34N 59°20' E 010°31'0 0.0
2015-Feb-25 04:33N 59°20' E 010°31'0 0.0
2015-Feb-25 03:33N 59°20' E 010°31'0 0.0
2015-Feb-25 02:33N 59°20' E 010°31'0 0.0
2015-Feb-25 01:33N 59°20' E 010°31'0 0.0
2015-Feb-25 00:34N 59°20' E 010°31'0 0.0
2015-Feb-24 23:33N 59°20' E 010°31'0 0.0
2015-Feb-24 22:33N 59°20' E 010°31'0 0.0
2015-Feb-24 21:34N 59°20' E 010°31'0 0.0
2015-Feb-24 20:33N 59°20' E 010°31'0 0.0
2015-Feb-24 19:33N 59°20' E 010°31'0 0.0
2015-Feb-24 18:33N 59°20' E 010°31'0 0.0
2015-Feb-24 17:33N 59°20' E 010°31'0 0.0
2015-Feb-24 16:34N 59°20' E 010°31'0 0.0
2015-Feb-24 15:33N 59°20' E 010°31'0 0.0
2015-Feb-24 14:34N 59°20' E 010°31'0 0.0
2015-Feb-24 13:34N 59°20' E 010°31'0 0.0
2015-Feb-24 12:34N 59°20' E 010°31'0 0.0
2015-Feb-24 11:34N 59°20' E 010°31'0 0.0
2015-Feb-24 10:33N 59°20' E 010°31'0 0.0
2015-Feb-24 09:33N 59°20' E 010°31'0 0.0
2015-Feb-24 08:34N 59°20' E 010°31'0 0.0
2015-Feb-24 07:34N 59°20' E 010°31'0 0.0
2015-Feb-24 06:33N 59°20' E 010°31'0 0.0
2015-Feb-24 05:33N 59°20' E 010°31'0 0.0
2015-Feb-24 04:33N 59°20' E 010°31'0 0.0
2015-Feb-24 03:33N 59°20' E 010°31'0 0.0
2015-Feb-24 02:33N 59°20' E 010°31'0 0.0
2015-Feb-24 01:33N 59°20' E 010°31'0 0.5
2015-Feb-24 00:34N 59°20' E 010°32'1 0.7
2015-Feb-23 23:33N 59°20' E 010°31'1 1.0
2015-Feb-23 22:33N 59°20' E 010°31'0 0.0
2015-Feb-23 21:33N 59°20' E 010°31'0 0.0
2015-Feb-23 20:33N 59°20' E 010°31'0 0.0
2015-Feb-23 19:33N 59°20' E 010°31'0 0.0
2015-Feb-23 18:33N 59°20' E 010°31'0 0.0
2015-Feb-23 17:33N 59°20' E 010°31'0 0.0
2015-Feb-23 16:34N 59°20' E 010°31'0 0.0
2015-Feb-23 15:33N 59°20' E 010°31'0 0.0
2015-Feb-23 14:33N 59°20' E 010°31'1 1.2
2015-Feb-23 13:34N 59°20' E 010°32'1 1.2
2015-Feb-23 12:33N 59°20' E 010°31'0 0.0
2015-Feb-23 11:33N 59°20' E 010°31'0 0.0
2015-Feb-23 10:33N 59°20' E 010°31'0 0.0
2015-Feb-23 09:33N 59°20' E 010°31'0 0.0
2015-Feb-23 08:33N 59°20' E 010°31'0 0.0
2015-Feb-23 07:34N 59°20' E 010°31'0 0.0
2015-Feb-23 06:34N 59°20' E 010°31'0 0.0
2015-Feb-23 05:33N 59°20' E 010°31'0 0.0
2015-Feb-23 04:33N 59°20' E 010°31'0 0.0
2015-Feb-23 03:33N 59°20' E 010°31'0 0.0
2015-Feb-23 02:33N 59°20' E 010°31'0 0.1
2015-Feb-23 01:34N 59°20' E 010°31'0 0.1
2015-Feb-23 00:34N 59°20' E 010°31'0 0.0
2015-Feb-22 23:34N 59°20' E 010°31'0 0.0
2015-Feb-22 22:34N 59°20' E 010°31'0 0.0
2015-Feb-22 21:33N 59°20' E 010°31'0 0.0
2015-Feb-22 20:33N 59°20' E 010°31'0 0.0
2015-Feb-22 19:33N 59°20' E 010°31'0 0.0
2015-Feb-22 18:33N 59°20' E 010°31'0 0.0
2015-Feb-22 17:33N 59°20' E 010°31'0 0.0
2015-Feb-22 16:33N 59°20' E 010°31'0 0.0
2015-Feb-22 15:34N 59°20' E 010°31'0 0.0
2015-Feb-22 14:34N 59°20' E 010°31'0 0.0
2015-Feb-22 13:34N 59°20' E 010°31'0 0.0
2015-Feb-22 12:33N 59°20' E 010°31'0 0.0
2015-Feb-22 11:33N 59°20' E 010°31'0 0.0
2015-Feb-22 10:33N 59°20' E 010°31'0 0.0
2015-Feb-22 09:33N 59°20' E 010°31'0 0.0
2015-Feb-22 08:33N 59°20' E 010°31'0 0.0
2015-Feb-22 07:34N 59°20' E 010°31'0 0.0
2015-Feb-22 06:34N 59°20' E 010°31'  
Track history (hours):
 
Tides and Currents Weather Stations Pressure Air Temp Water Temp Dewpoint Dewpoint Depression Visibility Wind Speed Wind Dir Waves Ship Positions

Tb_john

Last reported at 2015-Mar-04 05:33 UTC. Time now 2015-Mar-04 07:06 UTC.
Position N 59°20' E 010°31'.

Length 33 m; draft 5 m.

Type: Tug. MMSI: 259599000.

Date/timePositionNaut miles runAvg speedWind from/ knotsBaromVisibWave heightAir tempDewpointWater temp
2015-Mar-04 05:33N 59°20' E 010°31'0 0.0
2015-Mar-04 04:33N 59°20' E 010°31'0 0.0
2015-Mar-04 03:33N 59°20' E 010°31'0 0.0
2015-Mar-04 02:34N 59°20' E 010°31'0 0.0
2015-Mar-04 01:34N 59°20' E 010°31'0 0.0
2015-Mar-04 00:33N 59°20' E 010°31'0 0.0
2015-Mar-03 23:33N 59°20' E 010°31'0 0.0
2015-Mar-03 22:34N 59°20' E 010°31'0 0.0
2015-Mar-03 21:33N 59°20' E 010°31'0 0.0
2015-Mar-03 20:34N 59°20' E 010°31'0 0.0
2015-Mar-03 19:34N 59°20' E 010°31'0 0.0
2015-Mar-03 18:34N 59°20' E 010°31'1 0.9
2015-Mar-03 17:34N 59°20' E 010°31'1 0.9
2015-Mar-03 16:33N 59°20' E 010°31'0 0.0
2015-Mar-03 15:33N 59°20' E 010°31'0 0.0
2015-Mar-03 14:33N 59°20' E 010°31'0 0.0
2015-Mar-03 13:33N 59°20' E 010°31'0 0.0
2015-Mar-03 12:34N 59°20' E 010°31'0 0.0
2015-Mar-03 11:34N 59°20' E 010°31'0 0.0
2015-Mar-03 10:34N 59°20' E 010°31'0 0.0
2015-Mar-03 09:33N 59°20' E 010°31'0 0.0
2015-Mar-03 08:33N 59°20' E 010°31'0 0.0
2015-Mar-03 07:34N 59°20' E 010°31'0 0.0
2015-Mar-03 06:33N 59°20' E 010°31'0 0.0
2015-Mar-03 05:33N 59°20' E 010°31'0 0.0
2015-Mar-03 04:34N 59°20' E 010°31'0 0.0
2015-Mar-03 03:33N 59°20' E 010°31'0 0.0
2015-Mar-03 02:33N 59°20' E 010°31'0 0.0
2015-Mar-03 01:34N 59°20' E 010°31'0 0.0
2015-Mar-03 00:33N 59°20' E 010°31'1 0.8
2015-Mar-02 23:33N 59°20' E 010°31'1 0.8
2015-Mar-02 22:33N 59°20' E 010°31'0 0.0
2015-Mar-02 21:33N 59°20' E 010°31'0 0.0
2015-Mar-02 20:33N 59°20' E 010°31'0 0.0
2015-Mar-02 19:33N 59°20' E 010°31'0 0.4
2015-Mar-02 18:33N 59°20' E 010°31'0 0.4
2015-Mar-02 17:33N 59°20' E 010°31'0 0.0
2015-Mar-02 16:33N 59°20' E 010°31'0 0.0
2015-Mar-02 15:33N 59°20' E 010°31'0 0.0
2015-Mar-02 14:34N 59°20' E 010°31'0 0.0
2015-Mar-02 13:33N 59°20' E 010°31'0 0.0
2015-Mar-02 12:33N 59°20' E 010°31'0 0.0
2015-Mar-02 11:34N 59°20' E 010°31'0 0.0
2015-Mar-02 10:33N 59°20' E 010°31'0 0.0
2015-Mar-02 09:34N 59°20' E 010°31'0 0.0
2015-Mar-02 08:33N 59°20' E 010°31'0 0.0
2015-Mar-02 07:34N 59°20' E 010°31'0 0.0
2015-Mar-02 06:33N 59°20' E 010°31'1 1.0
2015-Mar-02 05:33N 59°20' E 010°32'2 2.0
2015-Mar-02 04:33N 59°19' E 010°34'8 7.9
2015-Mar-02 03:34N 59°11' E 010°39'5 4.7
2015-Mar-02 02:33N 59°15' E 010°35'5 4.7
2015-Mar-02 01:34N 59°20' E 010°31'8 7.7
2015-Mar-02 00:33N 59°13' E 010°39'1 1.4
2015-Mar-01 23:33N 59°14' E 010°36'7 6.8
2015-Mar-01 22:33N 59°20' E 010°31'7 6.7
2015-Mar-01 21:34N 59°26' E 010°30'1 1.1
2015-Mar-01 20:33N 59°26' E 010°29'0 0.0
2015-Mar-01 19:33N 59°26' E 010°29'0 0.0
2015-Mar-01 18:33N 59°26' E 010°29'0 0.0
2015-Mar-01 17:33N 59°26' E 010°29'0 0.0
2015-Mar-01 16:33N 59°26' E 010°29'0 0.0
2015-Mar-01 15:33N 59°26' E 010°29'0 0.0
2015-Mar-01 14:33N 59°26' E 010°29'0 0.0
2015-Mar-01 13:33N 59°26' E 010°29'0 0.0
2015-Mar-01 12:33N 59°26' E 010°29'0 0.0
2015-Mar-01 11:34N 59°26' E 010°29'0 0.0
2015-Mar-01 10:33N 59°26' E 010°29'1 0.7
2015-Mar-01 09:34N 59°26' E 010°30'5 5.4
2015-Mar-01 08:34N 59°20' E 010°31'1 0.8
2015-Mar-01 07:33N 59°20' E 010°31'0 0.0
2015-Mar-01 06:34N 59°20' E 010°31'0 0.0
2015-Mar-01 05:34N 59°20' E 010°31'0 0.0
2015-Mar-01 04:33N 59°20' E 010°31'0 0.0
2015-Mar-01 03:34N 59°20' E 010°31'0 0.0
2015-Mar-01 02:33N 59°20' E 010°31'0 0.0
2015-Mar-01 01:33N 59°20' E 010°31'0 0.0
2015-Mar-01 00:33N 59°20' E 010°31'0 0.0
2015-Feb-28 23:33N 59°20' E 010°31'0 0.0
2015-Feb-28 22:33N 59°20' E 010°31'0 0.0
2015-Feb-28 21:33N 59°20' E 010°31'0 0.0
2015-Feb-28 20:33N 59°20' E 010°31'0 0.0
2015-Feb-28 19:33N 59°20' E 010°31'0 0.0
2015-Feb-28 18:33N 59°20' E 010°31'0 0.0
2015-Feb-28 17:33N 59°20' E 010°31'0 0.0
2015-Feb-28 16:33N 59°20' E 010°31'0 0.0
2015-Feb-28 15:33N 59°20' E 010°31'0 0.0
2015-Feb-28 14:34N 59°20' E 010°31'0 0.0
2015-Feb-28 13:33N 59°20' E 010°31'0 0.0
2015-Feb-28 12:33N 59°20' E 010°31'0 0.0
2015-Feb-28 11:33N 59°20' E 010°31'0 0.0
2015-Feb-28 10:33N 59°20' E 010°31'0 0.0
2015-Feb-28 09:33N 59°20' E 010°31'0 0.0
2015-Feb-28 08:34N 59°20' E 010°31'0 0.0
2015-Feb-28 07:33N 59°20' E 010°31'0 0.0
2015-Feb-28 06:34N 59°20' E 010°31'0 0.0
2015-Feb-28 05:33N 59°20' E 010°31'0 0.0
2015-Feb-28 04:33N 59°20' E 010°31'0 0.0
2015-Feb-28 03:34N 59°20' E 010°31'0 0.0
2015-Feb-28 02:33N 59°20' E 010°31'0 0.0
2015-Feb-28 01:33N 59°20' E 010°31'0 0.0
2015-Feb-28 00:33N 59°20' E 010°31'0 0.0
2015-Feb-27 23:33N 59°20' E 010°31'0 0.0
2015-Feb-27 22:33N 59°20' E 010°31'0 0.0
2015-Feb-27 21:34N 59°20' E 010°31'0 0.0
2015-Feb-27 20:33N 59°20' E 010°31'0 0.0
2015-Feb-27 19:33N 59°20' E 010°31'0 0.0
2015-Feb-27 18:34N 59°20' E 010°31'0 0.0
2015-Feb-27 17:33N 59°20' E 010°31'0 0.0
2015-Feb-27 16:33N 59°20' E 010°31'0 0.0
2015-Feb-27 15:33N 59°20' E 010°31'0 0.0
2015-Feb-27 14:33N 59°20' E 010°31'0 0.0
2015-Feb-27 13:33N 59°20' E 010°31'0 0.0
2015-Feb-27 12:33N 59°20' E 010°31'0 0.0
2015-Feb-27 11:33N 59°20' E 010°31'0 0.0
2015-Feb-27 10:33N 59°20' E 010°31'6 6.3
2015-Feb-27 09:34N 59°14' E 010°36'3 2.9
2015-Feb-27 08:33N 59°17' E 010°35'4 3.6
2015-Feb-27 07:33N 59°20' E 010°31'0 0.2
2015-Feb-27 06:33N 59°20' E 010°31'0 0.0
2015-Feb-27 05:33N 59°20' E 010°31'0 0.0
2015-Feb-27 04:33N 59°20' E 010°31'0 0.0
2015-Feb-27 03:33N 59°20' E 010°31'1 0.7
2015-Feb-27 02:33N 59°20' E 010°30'1 0.7
2015-Feb-27 01:33N 59°20' E 010°31'0 0.0
2015-Feb-27 00:33N 59°20' E 010°31'0 0.0
2015-Feb-26 23:33N 59°20' E 010°31'0 0.0
2015-Feb-26 22:33N 59°20' E 010°31'0 0.0
2015-Feb-26 21:33N 59°20' E 010°31'0 0.0
2015-Feb-26 20:33N 59°20' E 010°31'0 0.0
2015-Feb-26 19:33N 59°20' E 010°31'0 0.0
2015-Feb-26 18:34N 59°20' E 010°31'0 0.0
2015-Feb-26 17:33N 59°20' E 010°31'0 0.0
2015-Feb-26 16:33N 59°20' E 010°31'0 0.0
2015-Feb-26 15:33N 59°20' E 010°31'0 0.0
2015-Feb-26 14:33N 59°20' E 010°31'0 0.0
2015-Feb-26 13:33N 59°20' E 010°31'0 0.0
2015-Feb-26 12:33N 59°20' E 010°31'0 0.0
2015-Feb-26 11:33N 59°20' E 010°31'0 0.0
2015-Feb-26 10:33N 59°20' E 010°31'0 0.0
2015-Feb-26 09:34N 59°20' E 010°31'0 0.0
2015-Feb-26 08:33N 59°20' E 010°31'0 0.0
2015-Feb-26 07:33N 59°20' E 010°31'0 0.0
2015-Feb-26 06:33N 59°20' E 010°31'0 0.0
2015-Feb-26 05:33N 59°20' E 010°31'0 0.0
2015-Feb-26 04:33N 59°20' E 010°31'0 0.0
2015-Feb-26 03:33N 59°20' E 010°31'0 0.0
2015-Feb-26 02:34N 59°20' E 010°31'0 0.0
2015-Feb-26 01:33N 59°20' E 010°31'0 0.0
2015-Feb-26 00:34N 59°20' E 010°31'0 0.0
2015-Feb-25 23:33N 59°20' E 010°31'0 0.0
2015-Feb-25 22:33N 59°20' E 010°31'0 0.0
2015-Feb-25 21:34N 59°20' E 010°31'0 0.0
2015-Feb-25 20:33N 59°20' E 010°31'0 0.0
2015-Feb-25 19:33N 59°20' E 010°31'0 0.0
2015-Feb-25 18:33N 59°20' E 010°31'0 0.1
2015-Feb-25 17:33N 59°20' E 010°31'0 0.1
2015-Feb-25 16:34N 59°20' E 010°31'0 0.0
2015-Feb-25 15:33N 59°20' E 010°31'0 0.0
2015-Feb-25 14:34N 59°20' E 010°31'2 2.5
2015-Feb-25 13:33N 59°18' E 010°34'6 5.5
2015-Feb-25 12:33N 59°12' E 010°37'8 8.0
2015-Feb-25 11:33N 59°20' E 010°31'0 0.2
2015-Feb-25 10:33N 59°20' E 010°31'0 0.0
2015-Feb-25 09:33N 59°20' E 010°31'0 0.0
2015-Feb-25 08:33N 59°20' E 010°31'0 0.0
2015-Feb-25 07:33N 59°20' E 010°31'0 0.0
2015-Feb-25 06:33N 59°20' E 010°31'0 0.0
2015-Feb-25 05:34N 59°20' E 010°31'0 0.0
2015-Feb-25 04:33N 59°20' E 010°31'0 0.0
2015-Feb-25 03:33N 59°20' E 010°31'0 0.0
2015-Feb-25 02:33N 59°20' E 010°31'0 0.0
2015-Feb-25 01:33N 59°20' E 010°31'0 0.0
2015-Feb-25 00:34N 59°20' E 010°31'0 0.0
2015-Feb-24 23:33N 59°20' E 010°31'0 0.0
2015-Feb-24 22:33N 59°20' E 010°31'0 0.0
2015-Feb-24 21:34N 59°20' E 010°31'0 0.0
2015-Feb-24 20:33N 59°20' E 010°31'0 0.0
2015-Feb-24 19:33N 59°20' E 010°31'0 0.0
2015-Feb-24 18:33N 59°20' E 010°31'0 0.0
2015-Feb-24 17:33N 59°20' E 010°31'0 0.0
2015-Feb-24 16:34N 59°20' E 010°31'0 0.0
2015-Feb-24 15:33N 59°20' E 010°31'0 0.0
2015-Feb-24 14:34N 59°20' E 010°31'0 0.0
2015-Feb-24 13:34N 59°20' E 010°31'0 0.0
2015-Feb-24 12:34N 59°20' E 010°31'0 0.0
2015-Feb-24 11:34N 59°20' E 010°31'0 0.0
2015-Feb-24 10:33N 59°20' E 010°31'0 0.0
2015-Feb-24 09:33N 59°20' E 010°31'0 0.0
2015-Feb-24 08:34N 59°20' E 010°31'0 0.0
2015-Feb-24 07:34N 59°20' E 010°31'0 0.0
2015-Feb-24 06:33N 59°20' E 010°31'0 0.0
2015-Feb-24 05:33N 59°20' E 010°31'0 0.0
2015-Feb-24 04:33N 59°20' E 010°31'0 0.0
2015-Feb-24 03:33N 59°20' E 010°31'0 0.0
2015-Feb-24 02:33N 59°20' E 010°31'0 0.0
2015-Feb-24 01:33N 59°20' E 010°31'0 0.5
2015-Feb-24 00:34N 59°20' E 010°32'1 0.7
2015-Feb-23 23:33N 59°20' E 010°31'1 1.0
2015-Feb-23 22:33N 59°20' E 010°31'0 0.0
2015-Feb-23 21:33N 59°20' E 010°31'0 0.0
2015-Feb-23 20:33N 59°20' E 010°31'0 0.0
2015-Feb-23 19:33N 59°20' E 010°31'0 0.0
2015-Feb-23 18:33N 59°20' E 010°31'0 0.0
2015-Feb-23 17:33N 59°20' E 010°31'0 0.0
2015-Feb-23 16:34N 59°20' E 010°31'0 0.0
2015-Feb-23 15:33N 59°20' E 010°31'0 0.0
2015-Feb-23 14:33N 59°20' E 010°31'1 1.2
2015-Feb-23 13:34N 59°20' E 010°32'1 1.2
2015-Feb-23 12:33N 59°20' E 010°31'0 0.0
2015-Feb-23 11:33N 59°20' E 010°31'0 0.0
2015-Feb-23 10:33N 59°20' E 010°31'0 0.0
2015-Feb-23 09:33N 59°20' E 010°31'0 0.0
2015-Feb-23 08:33N 59°20' E 010°31'0 0.0
2015-Feb-23 07:34N 59°20' E 010°31'0 0.0
2015-Feb-23 06:34N 59°20' E 010°31'0 0.0
2015-Feb-23 05:33N 59°20' E 010°31'0 0.0
2015-Feb-23 04:33N 59°20' E 010°31'0 0.0
2015-Feb-23 03:33N 59°20' E 010°31'0 0.0
2015-Feb-23 02:33N 59°20' E 010°31'0 0.1
2015-Feb-23 01:34N 59°20' E 010°31'0 0.1
2015-Feb-23 00:34N 59°20' E 010°31'0 0.0
2015-Feb-22 23:34N 59°20' E 010°31'0 0.0
2015-Feb-22 22:34N 59°20' E 010°31'0 0.0
2015-Feb-22 21:33N 59°20' E 010°31'0 0.0
2015-Feb-22 20:33N 59°20' E 010°31'0 0.0
2015-Feb-22 19:33N 59°20' E 010°31'0 0.0
2015-Feb-22 18:33N 59°20' E 010°31'0 0.0
2015-Feb-22 17:33N 59°20' E 010°31'0 0.0
2015-Feb-22 16:33N 59°20' E 010°31'0 0.0
2015-Feb-22 15:34N 59°20' E 010°31'0 0.0
2015-Feb-22 14:34N 59°20' E 010°31'0 0.0
2015-Feb-22 13:34N 59°20' E 010°31'0 0.0
2015-Feb-22 12:33N 59°20' E 010°31'0 0.0
2015-Feb-22 11:33N 59°20' E 010°31'0 0.0
2015-Feb-22 10:33N 59°20' E 010°31'0 0.0
2015-Feb-22 09:33N 59°20' E 010°31'0 0.0
2015-Feb-22 08:33N 59°20' E 010°31'0 0.0
2015-Feb-22 07:34N 59°20' E 010°31'0 0.0
2015-Feb-22 06:34N 59°20' E 010°31'  

Dump ship's entire track history